Copper Center, AK (99573)

7:18 AM AKST on December 29, 2014 (GMT -0900)
AKDOT Richardson Highway @ Edgerton Highway M | Change Station
CLOSE
Current Station
Personal Weather Station
Location: Copper Center, AK
Elevation: 2080 ft
Nearby Weather Stations

Elev 2080 ft 61.71 °N, 145.16 °W | Updated 56 minutes ago

Partly Cloudy
Partly Cloudy
15 °F
Feels Like 15 °F
N
0
Wind Variable Wind from North
Gusts 0.0 mph

Today
High -- | Low -- °F
--% Chance of Precip.
Yesterday
High -- | Low -- °F
Precip. -- in
10:04 AM 3:22 PM
First Quarter, 60% visible
Pressure 30.57 in
Visibility 10.0 miles
Clouds Few 12000 ft
Windchill 15 °F
Dew Point 7 °F
Humidity 69%
Rainfall -999.00 in
Snow Depth Not available.
UV 0 out of 12
Pollen Not available.
Air Quality Not available.
Flu Activity Not available.
METAR PAGK 291553Z AUTO 16014KT 10SM FEW120 M07/M10 A3041 RMK AO2 SLP350 T10671100 TSNO $

More Conditions Fewer Conditions

Pressure 30.57 in
Visibility 10.0 miles
Clouds Few 12000 ft
Windchill 15 °F
Dew Point 7 °F
Humidity 69%
Rainfall -999.00 in
Snow Depth Not available.
UV 0 out of 12
Pollen Not available.
Air Quality Not available.
Flu Activity Not available.
METAR PAGK 291553Z AUTO 16014KT 10SM FEW120 M07/M10 A3041 RMK AO2 SLP350 T10671100 TSNO $

More Conditions Fewer Conditions

10-Day Weather Forecast

Almanac

Astronomy

Dec. 29, 2014 Rise Set
Actual Time
Civil Twilight
Nautical Twilight
Astronomical Twilight
Moon
Length of Visible Light
Length of Day
Tomorrow will be .
, % of the Moon is Illuminated

Today's Extremes

State Highs State Lows

Community

WunderPhotos

Upload Photos

1,781,627 photos uploaded!

WunderBlogs® & News

Nearby

Air Quality

  Air Quality AQ Index Pollutant
Not available.

Snow Depth

Station Depth Elevation

Earthquake Activity

City Distance Mag. Time & Date
Minimum magnitude displayed is 2.5.

Coastal Water Temperatures

Place Temperature

Nearby Weather Stations